sensor_id;sensor_type;location;lat;lon;timestamp;P1;durP1;ratioP1;P2;durP2;ratioP2
727;SDS011;347;48.780;9.158;2023-04-25T00:00:11;7.80;;;7.40;;
727;SDS011;347;48.780;9.158;2023-04-25T00:02:36;7.03;;;6.83;;
727;SDS011;347;48.780;9.158;2023-04-25T00:05:02;7.63;;;7.33;;
727;SDS011;347;48.780;9.158;2023-04-25T00:07:28;7.20;;;6.90;;
727;SDS011;347;48.780;9.158;2023-04-25T00:09:54;6.70;;;6.47;;
727;SDS011;347;48.780;9.158;2023-04-25T00:12:19;7.20;;;6.80;;
727;SDS011;347;48.780;9.158;2023-04-25T00:14:46;6.90;;;6.70;;
727;SDS011;347;48.780;9.158;2023-04-25T00:17:14;7.27;;;6.97;;
727;SDS011;347;48.780;9.158;2023-04-25T00:19:41;6.80;;;6.60;;
727;SDS011;347;48.780;9.158;2023-04-25T00:22:07;7.47;;;7.17;;
727;SDS011;347;48.780;9.158;2023-04-25T00:24:33;7.53;;;7.23;;
727;SDS011;347;48.780;9.158;2023-04-25T00:26:58;7.37;;;7.07;;
727;SDS011;347;48.780;9.158;2023-04-25T00:29:24;8.10;;;7.80;;
727;SDS011;347;48.780;9.158;2023-04-25T00:31:50;7.00;;;6.80;;
727;SDS011;347;48.780;9.158;2023-04-25T00:34:15;7.20;;;6.90;;
727;SDS011;347;48.780;9.158;2023-04-25T00:36:41;8.00;;;7.30;;
727;SDS011;347;48.780;9.158;2023-04-25T00:39:06;7.97;;;7.67;;
727;SDS011;347;48.780;9.158;2023-04-25T00:41:32;7.73;;;7.43;;
727;SDS011;347;48.780;9.158;2023-04-25T00:43:58;7.53;;;7.23;;
727;SDS011;347;48.780;9.158;2023-04-25T00:46:25;7.80;;;7.40;;
727;SDS011;347;48.780;9.158;2023-04-25T00:48:51;7.00;;;6.80;;
727;SDS011;347;48.780;9.158;2023-04-25T00:51:19;6.87;;;6.67;;
727;SDS011;347;48.780;9.158;2023-04-25T00:53:46;7.80;;;7.50;;
727;SDS011;347;48.780;9.158;2023-04-25T00:56:14;8.67;;;8.27;;
727;SDS011;347;48.780;9.158;2023-04-25T00:58:40;7.37;;;7.17;;
727;SDS011;347;48.780;9.158;2023-04-25T01:01:07;8.70;;;8.27;;
727;SDS011;347;48.780;9.158;2023-04-25T01:03:35;7.70;;;7.40;;
727;SDS011;347;48.780;9.158;2023-04-25T01:06:06;8.27;;;7.93;;
727;SDS011;347;48.780;9.158;2023-04-25T01:08:33;8.57;;;8.27;;
727;SDS011;347;48.780;9.158;2023-04-25T01:10:59;8.20;;;7.90;;
727;SDS011;347;48.780;9.158;2023-04-25T01:13:24;8.00;;;7.80;;
727;SDS011;347;48.780;9.158;2023-04-25T01:15:50;8.80;;;8.40;;
727;SDS011;347;48.780;9.158;2023-04-25T01:18:16;8.77;;;8.37;;
727;SDS011;347;48.780;9.158;2023-04-25T01:20:41;7.97;;;7.57;;
727;SDS011;347;48.780;9.158;2023-04-25T01:23:08;8.13;;;7.83;;
727;SDS011;347;48.780;9.158;2023-04-25T01:25:34;8.40;;;8.10;;
727;SDS011;347;48.780;9.158;2023-04-25T01:28:00;8.90;;;8.40;;
727;SDS011;347;48.780;9.158;2023-04-25T01:30:26;8.20;;;7.90;;
727;SDS011;347;48.780;9.158;2023-04-25T01:32:54;8.20;;;7.90;;
727;SDS011;347;48.780;9.158;2023-04-25T01:35:21;8.90;;;8.40;;
727;SDS011;347;48.780;9.158;2023-04-25T01:37:49;8.20;;;7.97;;
727;SDS011;347;48.780;9.158;2023-04-25T01:40:15;8.30;;;8.00;;
727;SDS011;347;48.780;9.158;2023-04-25T01:42:43;8.83;;;8.43;;
727;SDS011;347;48.780;9.158;2023-04-25T01:45:10;7.67;;;7.47;;
727;SDS011;347;48.780;9.158;2023-04-25T01:47:37;8.80;;;8.40;;
727;SDS011;347;48.780;9.158;2023-04-25T01:50:05;9.10;;;8.70;;
727;SDS011;347;48.780;9.158;2023-04-25T01:52:31;8.60;;;8.30;;
727;SDS011;347;48.780;9.158;2023-04-25T01:54:57;8.40;;;8.13;;
727;SDS011;347;48.780;9.158;2023-04-25T01:57:24;8.67;;;8.27;;
727;SDS011;347;48.780;9.158;2023-04-25T01:59:50;8.90;;;8.50;;
727;SDS011;347;48.780;9.158;2023-04-25T02:02:16;8.60;;;8.20;;
727;SDS011;347;48.780;9.158;2023-04-25T02:04:42;8.50;;;8.20;;
727;SDS011;347;48.780;9.158;2023-04-25T02:07:07;8.70;;;8.40;;
727;SDS011;347;48.780;9.158;2023-04-25T02:09:33;8.70;;;8.30;;
727;SDS011;347;48.780;9.158;2023-04-25T02:11:58;9.30;;;9.00;;
727;SDS011;347;48.780;9.158;2023-04-25T02:14:24;9.50;;;8.90;;
727;SDS011;347;48.780;9.158;2023-04-25T02:16:51;8.67;;;8.20;;
727;SDS011;347;48.780;9.158;2023-04-25T02:19:17;9.30;;;9.00;;
727;SDS011;347;48.780;9.158;2023-04-25T02:21:43;9.10;;;8.80;;
727;SDS011;347;48.780;9.158;2023-04-25T02:24:08;9.20;;;8.80;;
727;SDS011;347;48.780;9.158;2023-04-25T02:26:34;8.10;;;7.80;;
727;SDS011;347;48.780;9.158;2023-04-25T02:29:00;8.07;;;7.77;;
727;SDS011;347;48.780;9.158;2023-04-25T02:31:26;9.20;;;8.90;;
727;SDS011;347;48.780;9.158;2023-04-25T02:33:51;8.00;;;7.80;;
727;SDS011;347;48.780;9.158;2023-04-25T02:36:17;9.00;;;8.60;;
727;SDS011;347;48.780;9.158;2023-04-25T02:38:43;8.90;;;8.40;;
727;SDS011;347;48.780;9.158;2023-04-25T02:41:08;8.50;;;8.20;;
727;SDS011;347;48.780;9.158;2023-04-25T02:43:34;8.53;;;8.23;;
727;SDS011;347;48.780;9.158;2023-04-25T02:46:00;8.60;;;8.30;;
727;SDS011;347;48.780;9.158;2023-04-25T02:48:25;9.00;;;8.60;;
727;SDS011;347;48.780;9.158;2023-04-25T02:50:51;8.90;;;8.60;;
727;SDS011;347;48.780;9.158;2023-04-25T02:53:17;8.53;;;8.17;;
727;SDS011;347;48.780;9.158;2023-04-25T02:55:42;9.47;;;9.07;;
727;SDS011;347;48.780;9.158;2023-04-25T02:58:08;8.87;;;8.47;;
727;SDS011;347;48.780;9.158;2023-04-25T03:00:33;8.97;;;8.63;;
727;SDS011;347;48.780;9.158;2023-04-25T03:02:59;9.43;;;9.03;;
727;SDS011;347;48.780;9.158;2023-04-25T03:05:25;8.47;;;8.07;;
727;SDS011;347;48.780;9.158;2023-04-25T03:07:50;9.33;;;8.73;;
727;SDS011;347;48.780;9.158;2023-04-25T03:10:16;9.60;;;9.30;;
727;SDS011;347;48.780;9.158;2023-04-25T03:12:42;9.47;;;8.97;;
727;SDS011;347;48.780;9.158;2023-04-25T03:15:07;9.10;;;8.70;;
727;SDS011;347;48.780;9.158;2023-04-25T03:17:33;9.40;;;9.00;;
727;SDS011;347;48.780;9.158;2023-04-25T03:19:59;8.70;;;8.40;;
727;SDS011;347;48.780;9.158;2023-04-25T03:22:26;9.60;;;9.20;;
727;SDS011;347;48.780;9.158;2023-04-25T03:24:51;9.43;;;9.13;;
727;SDS011;347;48.780;9.158;2023-04-25T03:27:17;8.90;;;8.60;;
727;SDS011;347;48.780;9.158;2023-04-25T03:29:42;9.30;;;9.00;;
727;SDS011;347;48.780;9.158;2023-04-25T03:32:08;9.07;;;8.73;;
727;SDS011;347;48.780;9.158;2023-04-25T03:34:34;9.93;;;9.37;;
727;SDS011;347;48.780;9.158;2023-04-25T03:37:00;9.17;;;8.53;;
727;SDS011;347;48.780;9.158;2023-04-25T03:39:26;9.83;;;9.30;;
727;SDS011;347;48.780;9.158;2023-04-25T03:41:51;9.37;;;9.07;;
727;SDS011;347;48.780;9.158;2023-04-25T03:44:17;8.70;;;8.33;;
727;SDS011;347;48.780;9.158;2023-04-25T03:46:43;10.23;;;9.63;;
727;SDS011;347;48.780;9.158;2023-04-25T03:49:08;9.10;;;8.70;;
727;SDS011;347;48.780;9.158;2023-04-25T03:51:34;8.70;;;8.40;;
727;SDS011;347;48.780;9.158;2023-04-25T03:54:00;9.67;;;9.17;;
727;SDS011;347;48.780;9.158;2023-04-25T03:56:26;9.23;;;8.90;;
727;SDS011;347;48.780;9.158;2023-04-25T03:58:51;9.70;;;9.20;;
727;SDS011;347;48.780;9.158;2023-04-25T04:01:17;8.93;;;8.50;;
727;SDS011;347;48.780;9.158;2023-04-25T04:03:42;8.87;;;8.47;;
727;SDS011;347;48.780;9.158;2023-04-25T04:06:08;9.63;;;9.30;;
727;SDS011;347;48.780;9.158;2023-04-25T04:08:34;9.87;;;9.37;;
727;SDS011;347;48.780;9.158;2023-04-25T04:11:00;10.27;;;9.77;;
727;SDS011;347;48.780;9.158;2023-04-25T04:13:26;10.23;;;9.63;;
727;SDS011;347;48.780;9.158;2023-04-25T04:15:53;10.70;;;10.30;;
727;SDS011;347;48.780;9.158;2023-04-25T04:18:20;10.53;;;10.03;;
727;SDS011;347;48.780;9.158;2023-04-25T04:20:46;9.67;;;9.27;;
727;SDS011;347;48.780;9.158;2023-04-25T04:23:12;9.67;;;9.07;;
727;SDS011;347;48.780;9.158;2023-04-25T04:25:38;10.80;;;10.40;;
727;SDS011;347;48.780;9.158;2023-04-25T04:28:04;9.80;;;9.50;;
727;SDS011;347;48.780;9.158;2023-04-25T04:30:31;10.90;;;10.50;;
727;SDS011;347;48.780;9.158;2023-04-25T04:32:58;11.33;;;10.93;;
727;SDS011;347;48.780;9.158;2023-04-25T04:35:25;10.60;;;10.00;;
727;SDS011;347;48.780;9.158;2023-04-25T04:37:51;9.80;;;9.40;;
727;SDS011;347;48.780;9.158;2023-04-25T04:40:18;10.20;;;9.80;;
727;SDS011;347;48.780;9.158;2023-04-25T04:42:44;11.27;;;10.70;;
727;SDS011;347;48.780;9.158;2023-04-25T04:45:13;9.97;;;9.47;;
727;SDS011;347;48.780;9.158;2023-04-25T04:47:39;9.93;;;9.47;;
727;SDS011;347;48.780;9.158;2023-04-25T04:50:09;9.83;;;9.47;;
727;SDS011;347;48.780;9.158;2023-04-25T04:52:35;10.67;;;10.10;;
727;SDS011;347;48.780;9.158;2023-04-25T04:55:02;10.43;;;9.93;;
727;SDS011;347;48.780;9.158;2023-04-25T04:57:29;10.33;;;9.83;;
727;SDS011;347;48.780;9.158;2023-04-25T04:59:55;11.10;;;10.50;;
727;SDS011;347;48.780;9.158;2023-04-25T05:02:21;10.93;;;10.40;;
727;SDS011;347;48.780;9.158;2023-04-25T05:04:47;11.23;;;10.67;;
727;SDS011;347;48.780;9.158;2023-04-25T05:07:13;11.57;;;11.03;;
727;SDS011;347;48.780;9.158;2023-04-25T05:09:38;11.73;;;11.23;;
727;SDS011;347;48.780;9.158;2023-04-25T05:12:04;11.00;;;10.43;;
727;SDS011;347;48.780;9.158;2023-04-25T05:14:30;10.93;;;10.40;;
727;SDS011;347;48.780;9.158;2023-04-25T05:16:56;11.23;;;10.70;;
727;SDS011;347;48.780;9.158;2023-04-25T05:19:21;11.20;;;10.50;;
727;SDS011;347;48.780;9.158;2023-04-25T05:21:48;11.30;;;10.80;;
727;SDS011;347;48.780;9.158;2023-04-25T05:24:14;11.43;;;10.93;;
727;SDS011;347;48.780;9.158;2023-04-25T05:26:40;11.90;;;11.20;;
727;SDS011;347;48.780;9.158;2023-04-25T05:29:05;11.73;;;10.93;;
727;SDS011;347;48.780;9.158;2023-04-25T05:31:31;11.40;;;10.90;;
727;SDS011;347;48.780;9.158;2023-04-25T05:33:57;11.90;;;11.30;;
727;SDS011;347;48.780;9.158;2023-04-25T05:36:23;10.33;;;9.83;;
727;SDS011;347;48.780;9.158;2023-04-25T05:38:48;11.27;;;10.77;;
727;SDS011;347;48.780;9.158;2023-04-25T05:41:14;10.23;;;9.73;;
727;SDS011;347;48.780;9.158;2023-04-25T05:43:40;10.20;;;9.70;;
727;SDS011;347;48.780;9.158;2023-04-25T05:46:10;11.03;;;10.43;;
727;SDS011;347;48.780;9.158;2023-04-25T05:48:36;11.10;;;10.33;;
727;SDS011;347;48.780;9.158;2023-04-25T05:51:02;9.40;;;9.00;;
727;SDS011;347;48.780;9.158;2023-04-25T05:53:28;11.80;;;11.20;;
727;SDS011;347;48.780;9.158;2023-04-25T05:55:54;9.87;;;9.57;;
727;SDS011;347;48.780;9.158;2023-04-25T05:58:19;11.13;;;10.53;;
727;SDS011;347;48.780;9.158;2023-04-25T06:00:45;11.17;;;10.60;;
727;SDS011;347;48.780;9.158;2023-04-25T06:03:11;10.20;;;9.70;;
727;SDS011;347;48.780;9.158;2023-04-25T06:05:40;9.47;;;9.00;;
727;SDS011;347;48.780;9.158;2023-04-25T06:08:07;10.50;;;9.80;;
727;SDS011;347;48.780;9.158;2023-04-25T06:10:32;9.87;;;9.47;;
727;SDS011;347;48.780;9.158;2023-04-25T06:12:58;9.90;;;9.40;;
727;SDS011;347;48.780;9.158;2023-04-25T06:15:24;10.17;;;9.70;;
727;SDS011;347;48.780;9.158;2023-04-25T06:17:50;9.40;;;9.10;;
727;SDS011;347;48.780;9.158;2023-04-25T06:20:15;10.50;;;9.90;;
727;SDS011;347;48.780;9.158;2023-04-25T06:22:41;10.73;;;10.33;;
727;SDS011;347;48.780;9.158;2023-04-25T06:25:07;9.77;;;9.47;;
727;SDS011;347;48.780;9.158;2023-04-25T06:27:33;10.70;;;10.20;;
727;SDS011;347;48.780;9.158;2023-04-25T06:29:59;10.87;;;10.47;;
727;SDS011;347;48.780;9.158;2023-04-25T06:32:25;9.60;;;9.27;;
727;SDS011;347;48.780;9.158;2023-04-25T06:34:52;9.60;;;9.23;;
727;SDS011;347;48.780;9.158;2023-04-25T06:37:18;10.40;;;10.00;;
727;SDS011;347;48.780;9.158;2023-04-25T06:39:44;9.63;;;8.93;;
727;SDS011;347;48.780;9.158;2023-04-25T06:42:09;10.00;;;9.47;;
727;SDS011;347;48.780;9.158;2023-04-25T06:44:35;9.53;;;9.07;;
727;SDS011;347;48.780;9.158;2023-04-25T06:47:01;10.00;;;9.70;;
727;SDS011;347;48.780;9.158;2023-04-25T06:49:27;10.00;;;9.50;;
727;SDS011;347;48.780;9.158;2023-04-25T06:51:52;11.47;;;10.97;;
727;SDS011;347;48.780;9.158;2023-04-25T06:54:18;10.43;;;10.03;;
727;SDS011;347;48.780;9.158;2023-04-25T06:56:44;11.10;;;10.40;;
727;SDS011;347;48.780;9.158;2023-04-25T06:59:10;11.07;;;10.63;;
727;SDS011;347;48.780;9.158;2023-04-25T07:01:35;11.17;;;10.67;;
727;SDS011;347;48.780;9.158;2023-04-25T07:04:01;11.40;;;10.90;;
727;SDS011;347;48.780;9.158;2023-04-25T07:06:26;10.90;;;10.40;;
727;SDS011;347;48.780;9.158;2023-04-25T07:08:53;12.33;;;11.73;;
727;SDS011;347;48.780;9.158;2023-04-25T07:11:19;11.60;;;11.10;;
727;SDS011;347;48.780;9.158;2023-04-25T07:13:44;10.70;;;10.30;;
727;SDS011;347;48.780;9.158;2023-04-25T07:16:19;11.73;;;11.23;;
727;SDS011;347;48.780;9.158;2023-04-25T07:18:45;10.97;;;10.47;;
727;SDS011;347;48.780;9.158;2023-04-25T07:21:11;11.10;;;10.60;;
727;SDS011;347;48.780;9.158;2023-04-25T07:23:36;12.70;;;12.10;;
727;SDS011;347;48.780;9.158;2023-04-25T07:26:02;11.60;;;11.10;;
727;SDS011;347;48.780;9.158;2023-04-25T07:28:28;11.80;;;11.20;;
727;SDS011;347;48.780;9.158;2023-04-25T07:30:53;11.67;;;11.17;;
727;SDS011;347;48.780;9.158;2023-04-25T07:33:19;11.03;;;10.53;;
727;SDS011;347;48.780;9.158;2023-04-25T07:35:45;11.80;;;11.30;;
727;SDS011;347;48.780;9.158;2023-04-25T07:38:11;10.20;;;9.67;;
727;SDS011;347;48.780;9.158;2023-04-25T07:40:36;11.10;;;10.60;;
727;SDS011;347;48.780;9.158;2023-04-25T07:43:02;11.57;;;10.97;;
727;SDS011;347;48.780;9.158;2023-04-25T07:45:28;11.90;;;11.40;;
727;SDS011;347;48.780;9.158;2023-04-25T07:47:53;11.73;;;11.20;;
727;SDS011;347;48.780;9.158;2023-04-25T07:50:19;11.50;;;11.00;;
727;SDS011;347;48.780;9.158;2023-04-25T07:52:45;11.97;;;11.50;;
727;SDS011;347;48.780;9.158;2023-04-25T07:55:10;12.07;;;11.47;;
727;SDS011;347;48.780;9.158;2023-04-25T07:57:36;11.90;;;11.30;;
727;SDS011;347;48.780;9.158;2023-04-25T08:00:03;11.90;;;11.30;;
727;SDS011;347;48.780;9.158;2023-04-25T08:02:30;11.60;;;11.10;;
727;SDS011;347;48.780;9.158;2023-04-25T08:04:55;12.20;;;11.60;;
727;SDS011;347;48.780;9.158;2023-04-25T08:07:21;11.30;;;10.80;;
727;SDS011;347;48.780;9.158;2023-04-25T08:09:47;11.43;;;10.83;;
727;SDS011;347;48.780;9.158;2023-04-25T08:12:12;11.20;;;10.70;;
727;SDS011;347;48.780;9.158;2023-04-25T08:14:38;11.93;;;11.30;;
727;SDS011;347;48.780;9.158;2023-04-25T08:17:04;11.60;;;11.00;;
727;SDS011;347;48.780;9.158;2023-04-25T08:19:30;11.33;;;10.83;;
727;SDS011;347;48.780;9.158;2023-04-25T08:21:56;11.07;;;10.57;;
727;SDS011;347;48.780;9.158;2023-04-25T08:24:22;11.47;;;10.97;;
727;SDS011;347;48.780;9.158;2023-04-25T08:26:48;11.27;;;10.77;;
727;SDS011;347;48.780;9.158;2023-04-25T08:29:14;10.97;;;10.37;;
727;SDS011;347;48.780;9.158;2023-04-25T08:31:40;11.70;;;11.10;;
727;SDS011;347;48.780;9.158;2023-04-25T08:34:05;11.80;;;11.20;;
727;SDS011;347;48.780;9.158;2023-04-25T08:36:31;11.20;;;10.70;;
727;SDS011;347;48.780;9.158;2023-04-25T08:38:57;11.13;;;10.60;;
727;SDS011;347;48.780;9.158;2023-04-25T08:41:23;11.87;;;11.20;;
727;SDS011;347;48.780;9.158;2023-04-25T08:43:50;11.30;;;10.70;;
727;SDS011;347;48.780;9.158;2023-04-25T08:46:17;11.23;;;10.70;;
727;SDS011;347;48.780;9.158;2023-04-25T08:48:44;11.10;;;10.60;;
727;SDS011;347;48.780;9.158;2023-04-25T08:51:12;11.33;;;10.83;;
727;SDS011;347;48.780;9.158;2023-04-25T08:53:46;10.73;;;10.13;;
727;SDS011;347;48.780;9.158;2023-04-25T08:56:15;12.23;;;11.33;;
727;SDS011;347;48.780;9.158;2023-04-25T08:58:50;11.57;;;11.00;;
727;SDS011;347;48.780;9.158;2023-04-25T09:01:17;11.00;;;10.50;;
727;SDS011;347;48.780;9.158;2023-04-25T09:03:43;11.97;;;11.37;;
727;SDS011;347;48.780;9.158;2023-04-25T09:06:13;12.23;;;11.70;;
727;SDS011;347;48.780;9.158;2023-04-25T09:08:39;11.77;;;11.17;;
727;SDS011;347;48.780;9.158;2023-04-25T09:11:06;11.03;;;10.47;;
727;SDS011;347;48.780;9.158;2023-04-25T09:13:32;12.00;;;11.20;;
727;SDS011;347;48.780;9.158;2023-04-25T09:15:58;11.47;;;10.90;;
727;SDS011;347;48.780;9.158;2023-04-25T09:20:54;12.00;;;11.50;;
727;SDS011;347;48.780;9.158;2023-04-25T09:23:21;11.57;;;11.07;;
727;SDS011;347;48.780;9.158;2023-04-25T09:25:48;12.77;;;12.17;;
727;SDS011;347;48.780;9.158;2023-04-25T09:28:15;12.37;;;11.87;;
727;SDS011;347;48.780;9.158;2023-04-25T09:30:41;13.73;;;12.43;;
727;SDS011;347;48.780;9.158;2023-04-25T09:33:08;10.83;;;10.33;;
727;SDS011;347;48.780;9.158;2023-04-25T09:35:44;11.30;;;10.70;;
727;SDS011;347;48.780;9.158;2023-04-25T09:38:14;10.80;;;10.30;;
727;SDS011;347;48.780;9.158;2023-04-25T09:40:44;10.30;;;9.50;;
727;SDS011;347;48.780;9.158;2023-04-25T09:43:20;11.27;;;10.77;;
727;SDS011;347;48.780;9.158;2023-04-25T09:46:23;12.03;;;11.53;;
727;SDS011;347;48.780;9.158;2023-04-25T09:52:19;11.20;;;10.60;;
727;SDS011;347;48.780;9.158;2023-04-25T09:54:46;10.80;;;10.30;;
727;SDS011;347;48.780;9.158;2023-04-25T09:57:22;10.53;;;9.83;;
727;SDS011;347;48.780;9.158;2023-04-25T09:59:51;10.80;;;10.30;;
727;SDS011;347;48.780;9.158;2023-04-25T10:02:19;9.37;;;8.93;;
727;SDS011;347;48.780;9.158;2023-04-25T10:04:50;10.50;;;10.00;;
727;SDS011;347;48.780;9.158;2023-04-25T10:07:19;10.50;;;10.00;;
727;SDS011;347;48.780;9.158;2023-04-25T10:10:00;9.37;;;9.07;;
727;SDS011;347;48.780;9.158;2023-04-25T10:12:29;9.53;;;9.13;;
727;SDS011;347;48.780;9.158;2023-04-25T10:14:59;9.70;;;9.30;;
727;SDS011;347;48.780;9.158;2023-04-25T10:17:28;9.90;;;9.50;;
727;SDS011;347;48.780;9.158;2023-04-25T10:19:54;8.97;;;8.67;;
727;SDS011;347;48.780;9.158;2023-04-25T10:22:23;9.00;;;8.70;;
727;SDS011;347;48.780;9.158;2023-04-25T10:24:51;9.67;;;9.27;;
727;SDS011;347;48.780;9.158;2023-04-25T10:27:17;9.73;;;9.40;;
727;SDS011;347;48.780;9.158;2023-04-25T10:29:44;10.03;;;9.57;;
727;SDS011;347;48.780;9.158;2023-04-25T10:32:09;9.10;;;8.80;;
727;SDS011;347;48.780;9.158;2023-04-25T10:34:42;8.50;;;8.13;;
727;SDS011;347;48.780;9.158;2023-04-25T10:37:11;9.10;;;8.80;;
727;SDS011;347;48.780;9.158;2023-04-25T10:39:41;8.80;;;8.40;;
727;SDS011;347;48.780;9.158;2023-04-25T10:42:07;9.13;;;8.83;;
727;SDS011;347;48.780;9.158;2023-04-25T10:44:33;9.17;;;8.87;;
727;SDS011;347;48.780;9.158;2023-04-25T10:47:00;8.90;;;8.50;;
727;SDS011;347;48.780;9.158;2023-04-25T10:49:32;9.90;;;9.57;;
727;SDS011;347;48.780;9.158;2023-04-25T10:52:24;9.37;;;9.00;;
727;SDS011;347;48.780;9.158;2023-04-25T10:54:52;11.80;;;11.20;;
727;SDS011;347;48.780;9.158;2023-04-25T10:57:36;12.47;;;11.77;;
727;SDS011;347;48.780;9.158;2023-04-25T11:00:08;10.60;;;10.20;;
727;SDS011;347;48.780;9.158;2023-04-25T11:02:43;11.50;;;10.80;;
727;SDS011;347;48.780;9.158;2023-04-25T11:07:50;11.70;;;11.07;;
727;SDS011;347;48.780;9.158;2023-04-25T11:10:24;12.03;;;11.53;;
727;SDS011;347;48.780;9.158;2023-04-25T11:12:53;11.73;;;11.23;;
727;SDS011;347;48.780;9.158;2023-04-25T11:15:19;11.53;;;11.07;;
727;SDS011;347;48.780;9.158;2023-04-25T11:17:45;11.97;;;11.30;;
727;SDS011;347;48.780;9.158;2023-04-25T11:20:11;12.10;;;11.60;;
727;SDS011;347;48.780;9.158;2023-04-25T11:22:38;11.80;;;11.20;;
727;SDS011;347;48.780;9.158;2023-04-25T11:25:06;11.10;;;10.60;;
727;SDS011;347;48.780;9.158;2023-04-25T11:27:32;10.77;;;10.03;;
727;SDS011;347;48.780;9.158;2023-04-25T11:30:09;9.90;;;9.50;;
727;SDS011;347;48.780;9.158;2023-04-25T11:32:44;9.63;;;9.33;;
727;SDS011;347;48.780;9.158;2023-04-25T11:35:10;10.00;;;9.60;;
727;SDS011;347;48.780;9.158;2023-04-25T11:37:38;10.10;;;9.80;;
727;SDS011;347;48.780;9.158;2023-04-25T11:40:05;11.07;;;10.60;;
727;SDS011;347;48.780;9.158;2023-04-25T11:42:32;10.80;;;10.40;;
727;SDS011;347;48.780;9.158;2023-04-25T11:44:58;10.53;;;10.13;;
727;SDS011;347;48.780;9.158;2023-04-25T11:47:31;10.83;;;10.47;;
727;SDS011;347;48.780;9.158;2023-04-25T11:49:58;10.73;;;10.33;;
727;SDS011;347;48.780;9.158;2023-04-25T11:52:34;11.40;;;10.87;;
727;SDS011;347;48.780;9.158;2023-04-25T11:55:12;10.83;;;10.43;;
727;SDS011;347;48.780;9.158;2023-04-25T11:57:39;10.83;;;10.37;;
727;SDS011;347;48.780;9.158;2023-04-25T12:00:07;12.07;;;11.30;;
727;SDS011;347;48.780;9.158;2023-04-25T12:02:42;11.20;;;10.80;;
727;SDS011;347;48.780;9.158;2023-04-25T12:05:09;11.40;;;10.90;;
727;SDS011;347;48.780;9.158;2023-04-25T12:07:36;11.30;;;10.63;;
727;SDS011;347;48.780;9.158;2023-04-25T12:12:36;12.57;;;11.77;;
727;SDS011;347;48.780;9.158;2023-04-25T12:15:15;12.20;;;11.60;;
727;SDS011;347;48.780;9.158;2023-04-25T12:17:51;11.30;;;10.90;;
727;SDS011;347;48.780;9.158;2023-04-25T12:20:18;11.80;;;11.40;;
727;SDS011;347;48.780;9.158;2023-04-25T12:22:46;12.10;;;11.60;;
727;SDS011;347;48.780;9.158;2023-04-25T12:25:14;12.53;;;12.00;;
727;SDS011;347;48.780;9.158;2023-04-25T12:31:18;12.43;;;11.80;;
727;SDS011;347;48.780;9.158;2023-04-25T12:33:39;13.50;;;12.80;;
727;SDS011;347;48.780;9.158;2023-04-25T12:36:07;14.07;;;13.40;;
727;SDS011;347;48.780;9.158;2023-04-25T12:38:37;13.63;;;13.03;;
727;SDS011;347;48.780;9.158;2023-04-25T12:41:05;13.83;;;13.23;;
727;SDS011;347;48.780;9.158;2023-04-25T12:43:31;13.70;;;13.07;;
727;SDS011;347;48.780;9.158;2023-04-25T12:45:57;14.80;;;13.87;;
727;SDS011;347;48.780;9.158;2023-04-25T12:48:23;14.40;;;13.60;;
727;SDS011;347;48.780;9.158;2023-04-25T12:50:49;14.30;;;13.60;;
727;SDS011;347;48.780;9.158;2023-04-25T12:53:17;13.53;;;12.93;;
727;SDS011;347;48.780;9.158;2023-04-25T12:55:44;13.83;;;13.13;;
727;SDS011;347;48.780;9.158;2023-04-25T12:58:13;13.33;;;12.63;;
727;SDS011;347;48.780;9.158;2023-04-25T13:00:43;14.03;;;13.43;;
727;SDS011;347;48.780;9.158;2023-04-25T13:03:09;14.47;;;13.77;;
727;SDS011;347;48.780;9.158;2023-04-25T13:05:36;14.50;;;13.77;;
727;SDS011;347;48.780;9.158;2023-04-25T13:08:02;15.40;;;14.47;;
727;SDS011;347;48.780;9.158;2023-04-25T13:10:28;14.67;;;13.97;;
727;SDS011;347;48.780;9.158;2023-04-25T13:12:53;14.73;;;14.03;;
727;SDS011;347;48.780;9.158;2023-04-25T13:15:19;14.40;;;13.70;;
727;SDS011;347;48.780;9.158;2023-04-25T13:17:45;14.40;;;13.70;;
727;SDS011;347;48.780;9.158;2023-04-25T13:20:11;13.80;;;13.03;;
727;SDS011;347;48.780;9.158;2023-04-25T13:22:38;14.33;;;13.53;;
727;SDS011;347;48.780;9.158;2023-04-25T13:25:05;14.00;;;13.10;;
727;SDS011;347;48.780;9.158;2023-04-25T13:27:31;14.60;;;13.80;;
727;SDS011;347;48.780;9.158;2023-04-25T13:29:59;16.50;;;15.60;;
727;SDS011;347;48.780;9.158;2023-04-25T13:32:25;16.03;;;15.13;;
727;SDS011;347;48.780;9.158;2023-04-25T13:34:51;16.57;;;15.67;;
727;SDS011;347;48.780;9.158;2023-04-25T13:37:18;16.20;;;15.20;;
727;SDS011;347;48.780;9.158;2023-04-25T13:39:43;17.70;;;16.70;;
727;SDS011;347;48.780;9.158;2023-04-25T13:42:09;17.17;;;16.03;;
727;SDS011;347;48.780;9.158;2023-04-25T13:44:36;17.90;;;16.83;;
727;SDS011;347;48.780;9.158;2023-04-25T13:47:01;16.83;;;15.83;;
727;SDS011;347;48.780;9.158;2023-04-25T13:49:27;16.90;;;15.90;;
727;SDS011;347;48.780;9.158;2023-04-25T13:51:52;16.70;;;15.90;;
727;SDS011;347;48.780;9.158;2023-04-25T13:54:18;17.97;;;16.77;;
727;SDS011;347;48.780;9.158;2023-04-25T13:56:43;16.17;;;15.07;;
727;SDS011;347;48.780;9.158;2023-04-25T13:59:10;18.60;;;17.40;;
727;SDS011;347;48.780;9.158;2023-04-25T14:01:36;18.60;;;17.30;;
727;SDS011;347;48.780;9.158;2023-04-25T14:04:02;17.17;;;16.17;;
727;SDS011;347;48.780;9.158;2023-04-25T14:06:31;18.17;;;17.03;;
727;SDS011;347;48.780;9.158;2023-04-25T14:08:57;16.70;;;15.53;;
727;SDS011;347;48.780;9.158;2023-04-25T14:11:22;16.03;;;15.03;;
727;SDS011;347;48.780;9.158;2023-04-25T14:13:48;17.17;;;16.17;;
727;SDS011;347;48.780;9.158;2023-04-25T14:16:14;16.33;;;15.23;;
727;SDS011;347;48.780;9.158;2023-04-25T14:18:40;16.00;;;14.93;;
727;SDS011;347;48.780;9.158;2023-04-25T14:21:06;16.00;;;14.83;;
727;SDS011;347;48.780;9.158;2023-04-25T14:23:32;15.77;;;14.87;;
727;SDS011;347;48.780;9.158;2023-04-25T14:25:57;15.10;;;14.40;;
727;SDS011;347;48.780;9.158;2023-04-25T14:28:23;15.77;;;14.67;;
727;SDS011;347;48.780;9.158;2023-04-25T14:30:49;15.47;;;14.47;;
727;SDS011;347;48.780;9.158;2023-04-25T14:33:14;15.13;;;14.07;;
727;SDS011;347;48.780;9.158;2023-04-25T14:35:40;13.20;;;12.40;;
727;SDS011;347;48.780;9.158;2023-04-25T14:38:06;12.00;;;11.50;;
727;SDS011;347;48.780;9.158;2023-04-25T14:40:32;13.73;;;12.27;;
727;SDS011;347;48.780;9.158;2023-04-25T14:42:58;12.40;;;11.60;;
727;SDS011;347;48.780;9.158;2023-04-25T14:45:23;14.07;;;13.27;;
727;SDS011;347;48.780;9.158;2023-04-25T14:47:49;14.03;;;13.23;;
727;SDS011;347;48.780;9.158;2023-04-25T14:50:15;13.10;;;12.27;;
727;SDS011;347;48.780;9.158;2023-04-25T14:52:41;12.30;;;11.70;;
727;SDS011;347;48.780;9.158;2023-04-25T14:55:06;13.87;;;13.10;;
727;SDS011;347;48.780;9.158;2023-04-25T14:57:33;12.27;;;11.67;;
727;SDS011;347;48.780;9.158;2023-04-25T14:59:59;14.67;;;13.50;;
727;SDS011;347;48.780;9.158;2023-04-25T15:02:27;11.27;;;10.63;;
727;SDS011;347;48.780;9.158;2023-04-25T15:04:53;13.27;;;12.23;;
727;SDS011;347;48.780;9.158;2023-04-25T15:07:20;12.80;;;12.17;;
727;SDS011;347;48.780;9.158;2023-04-25T15:09:47;11.17;;;10.70;;
727;SDS011;347;48.780;9.158;2023-04-25T15:12:13;11.90;;;11.30;;
727;SDS011;347;48.780;9.158;2023-04-25T15:14:38;12.47;;;11.67;;
727;SDS011;347;48.780;9.158;2023-04-25T15:17:04;13.50;;;12.70;;
727;SDS011;347;48.780;9.158;2023-04-25T15:19:30;14.67;;;13.97;;
727;SDS011;347;48.780;9.158;2023-04-25T15:21:56;12.67;;;12.00;;
727;SDS011;347;48.780;9.158;2023-04-25T15:24:25;13.03;;;12.30;;
727;SDS011;347;48.780;9.158;2023-04-25T15:26:51;12.73;;;11.90;;
727;SDS011;347;48.780;9.158;2023-04-25T15:29:17;13.50;;;12.80;;
727;SDS011;347;48.780;9.158;2023-04-25T15:31:43;13.20;;;12.50;;
727;SDS011;347;48.780;9.158;2023-04-25T15:34:09;13.03;;;12.13;;
727;SDS011;347;48.780;9.158;2023-04-25T15:36:35;14.53;;;13.43;;
727;SDS011;347;48.780;9.158;2023-04-25T15:39:01;13.37;;;12.70;;